createdAt,value
2019-04-26T00:00:51.189Z,101288.94
2019-04-26T00:03:31.771Z,101286.72
2019-04-26T00:06:05.847Z,101287.76
2019-04-26T00:08:39.072Z,101290.33
2019-04-26T00:11:29.093Z,101287.11
2019-04-26T00:14:12.365Z,101283.05
2019-04-26T00:16:54.971Z,101280.86
2019-04-26T00:19:27.199Z,101279.84
2019-04-26T00:21:59.444Z,101272.81
2019-04-26T00:24:32.100Z,101270.66
2019-04-26T00:27:04.124Z,101269.99
2019-04-26T00:29:36.066Z,101263.50
2019-04-26T00:32:08.168Z,101266.98
2019-04-26T00:34:40.204Z,101255.16
2019-04-26T00:37:13.157Z,101260.60
2019-04-26T00:39:46.173Z,101250.36
2019-04-26T00:42:18.619Z,101256.14
2019-04-26T00:44:51.321Z,101259.53
2019-04-26T00:47:26.058Z,101253.78
2019-04-26T00:50:00.042Z,101245.72
2019-04-26T00:52:33.079Z,101251.18
2019-04-26T00:55:06.638Z,101240.93
2019-04-26T00:57:39.017Z,101240.09
2019-04-26T01:00:13.023Z,101237.28
2019-04-26T01:02:47.341Z,101235.14
2019-04-26T01:05:19.297Z,101233.56
2019-04-26T01:07:52.897Z,101234.35
2019-04-26T01:10:25.802Z,101222.66
2019-04-26T01:12:57.917Z,101227.33
2019-04-26T01:15:29.860Z,101218.77
2019-04-26T01:18:01.823Z,101217.04
2019-04-26T01:20:36.325Z,101220.68
2019-04-26T01:23:13.186Z,101217.91
2019-04-26T01:26:07.533Z,101215.86
2019-04-26T01:28:46.745Z,101216.19
2019-04-26T01:31:19.957Z,101209.37
2019-04-26T01:33:52.620Z,101209.83
2019-04-26T01:36:28.496Z,101206.35
2019-04-26T01:39:09.601Z,101204.91
2019-04-26T01:41:43.292Z,101200.90
2019-04-26T01:44:17.285Z,101194.20
2019-04-26T01:46:50.688Z,101192.35
2019-04-26T01:49:24.263Z,101191.32
2019-04-26T01:52:06.344Z,101185.66
2019-04-26T01:54:42.986Z,101180.22
2019-04-26T01:57:16.461Z,101178.19
2019-04-26T01:59:55.008Z,101182.66
2019-04-26T02:02:34.823Z,101181.95
2019-04-26T02:05:12.108Z,101181.05
2019-04-26T02:07:44.441Z,101186.30
2019-04-26T02:10:20.581Z,101182.42
2019-04-26T02:12:54.745Z,101180.89
2019-04-26T02:15:31.281Z,101170.97
2019-04-26T02:18:04.277Z,101182.25
2019-04-26T02:20:54.713Z,101179.33
2019-04-26T02:23:44.202Z,101179.41
2019-04-26T02:26:36.813Z,101180.90
2019-04-26T02:29:26.604Z,101177.35
2019-04-26T02:32:03.742Z,101168.73
2019-04-26T02:34:38.304Z,101167.23
2019-04-26T02:37:13.847Z,101164.19
2019-04-26T02:40:06.940Z,101170.41
2019-04-26T02:42:42.979Z,101165.37
2019-04-26T02:45:58.246Z,101159.34
2019-04-26T02:48:45.123Z,101158.48
2019-04-26T02:51:29.129Z,101161.09
2019-04-26T02:54:22.616Z,101156.30
2019-04-26T02:56:59.082Z,101156.01
2019-04-26T02:59:38.174Z,101152.20
2019-04-26T03:02:14.445Z,101146.50
2019-04-26T03:04:50.888Z,101145.02
2019-04-26T03:07:32.078Z,101144.52
2019-04-26T03:10:06.944Z,101132.84
2019-04-26T03:12:43.275Z,101134.66
2019-04-26T03:15:24.569Z,101130.19
2019-04-26T03:18:24.120Z,101126.20
2019-04-26T03:21:39.928Z,101123.40
2019-04-26T03:24:22.271Z,101115.19
2019-04-26T03:27:18.096Z,101111.39
2019-04-26T03:30:19.234Z,101108.75
2019-04-26T03:33:12.434Z,101109.80
2019-04-26T03:36:11.762Z,101103.48
2019-04-26T03:39:28.891Z,101100.88
2019-04-26T03:42:44.888Z,101094.11
2019-04-26T03:45:40.760Z,101096.22
2019-04-26T03:48:26.333Z,101099.39
2019-04-26T03:51:27.334Z,101101.08
2019-04-26T03:54:32.542Z,101098.08
2019-04-26T03:57:44.823Z,101094.41
2019-04-26T04:00:23.133Z,101094.55
2019-04-26T04:03:27.879Z,101093.91
2019-04-26T04:06:05.194Z,101100.70
2019-04-26T04:08:53.795Z,101100.77
2019-04-26T04:11:40.812Z,101102.38
2019-04-26T04:14:45.118Z,101094.72
2019-04-26T04:17:43.811Z,101096.92
2019-04-26T04:20:50.877Z,101094.47
2019-04-26T04:23:39.823Z,101093.12
2019-04-26T04:26:17.588Z,101092.35
2019-04-26T04:29:04.662Z,101093.45
2019-04-26T04:31:45.756Z,101095.64
2019-04-26T04:34:28.085Z,101086.77
2019-04-26T04:37:04.649Z,101088.59
2019-04-26T04:40:12.435Z,101079.94
2019-04-26T04:42:59.915Z,101078.30
2019-04-26T04:45:58.774Z,101079.73
2019-04-26T04:49:15.825Z,101075.57
2019-04-26T04:52:12.632Z,101075.16
2019-04-26T04:55:07.727Z,101073.00
2019-04-26T04:57:58.471Z,101075.59
2019-04-26T05:00:54.335Z,101065.97
2019-04-26T05:03:51.060Z,101065.75
2019-04-26T05:06:49.045Z,101066.56
2019-04-26T05:09:31.701Z,101064.59
2019-04-26T05:12:08.276Z,101066.59
2019-04-26T05:15:10.196Z,101065.89
2019-04-26T05:17:55.829Z,101075.00
2019-04-26T05:21:07.001Z,101059.09
2019-04-26T05:24:23.836Z,101059.53
2019-04-26T05:27:10.719Z,101060.27
2019-04-26T05:30:00.967Z,101053.41
2019-04-26T05:32:52.787Z,101051.84
2019-04-26T05:35:56.022Z,101056.48
2019-04-26T05:39:08.729Z,101061.52
2019-04-26T05:42:51.747Z,101055.38
2019-04-26T05:46:07.876Z,101058.80
2019-04-26T05:48:57.978Z,101049.52
2019-04-26T05:52:00.501Z,101045.25
2019-04-26T05:55:12.924Z,101045.62
2019-04-26T05:58:24.821Z,101048.25
2019-04-26T06:01:59.056Z,101044.63
2019-04-26T06:04:49.256Z,101052.64
2019-04-26T06:08:03.614Z,101049.47
2019-04-26T06:10:46.567Z,101055.86
2019-04-26T06:13:57.857Z,101056.09
2019-04-26T06:16:57.601Z,101056.05
2019-04-26T06:19:57.315Z,101050.11
2019-04-26T06:22:53.674Z,101044.81
2019-04-26T06:26:29.127Z,101037.09
2019-04-26T06:29:17.248Z,101036.75
2019-04-26T06:32:13.703Z,101032.38
2019-04-26T06:35:14.631Z,101028.48
2019-04-26T06:38:43.523Z,101031.66
2019-04-26T06:42:00.774Z,101021.73
2019-04-26T06:45:17.983Z,101013.50
2019-04-26T06:48:08.024Z,101005.29
2019-04-26T06:51:09.234Z,101002.91
2019-04-26T06:54:10.578Z,101000.66
2019-04-26T06:57:13.760Z,100994.55
2019-04-26T06:59:57.427Z,100994.26
2019-04-26T07:03:05.713Z,100987.91
2019-04-26T07:05:46.794Z,100986.64
2019-04-26T07:08:33.211Z,100981.27
2019-04-26T07:11:46.264Z,100978.98
2019-04-26T07:15:03.829Z,100978.39
2019-04-26T07:17:58.269Z,100974.67
2019-04-26T07:20:38.929Z,100982.14
2019-04-26T07:23:34.247Z,100977.27
2019-04-26T07:26:43.535Z,100973.98
2019-04-26T07:29:46.707Z,100983.31
2019-04-26T07:32:49.572Z,100978.12
2019-04-26T07:35:37.529Z,100976.02
2019-04-26T07:38:17.255Z,100971.68
2019-04-26T07:41:22.810Z,100973.70
2019-04-26T07:44:39.003Z,100971.98
2019-04-26T07:47:40.329Z,100963.61
2019-04-26T07:50:39.544Z,100964.66
2019-04-26T07:54:00.579Z,100958.95
2019-04-26T07:56:49.140Z,100963.21
2019-04-26T07:59:57.310Z,100959.64
2019-04-26T08:02:44.287Z,100953.45
2019-04-26T08:05:46.227Z,100953.56
2019-04-26T08:08:22.839Z,100957.70
2019-04-26T08:11:12.869Z,100954.81
2019-04-26T08:13:52.250Z,100958.30
2019-04-26T08:16:46.514Z,100951.98
2019-04-26T08:19:23.544Z,100938.55
2019-04-26T08:22:11.589Z,100945.86
2019-04-26T08:24:34.866Z,100941.16
2019-04-26T08:27:23.200Z,100940.70
2019-04-26T08:29:56.238Z,100936.52
2019-04-26T08:32:33.433Z,100936.02
2019-04-26T08:35:16.885Z,100930.09
2019-04-26T08:37:48.325Z,100930.50
2019-04-26T08:40:30.709Z,100929.77
2019-04-26T08:43:03.300Z,100931.05
2019-04-26T08:45:45.599Z,100930.11
2019-04-26T08:48:22.424Z,100928.52
2019-04-26T08:50:58.265Z,100928.39
2019-04-26T08:53:34.297Z,100929.30
2019-04-26T08:56:11.613Z,100925.59
2019-04-26T08:58:47.928Z,100928.95
2019-04-26T09:01:37.120Z,100923.48
2019-04-26T09:04:14.199Z,100928.84
2019-04-26T09:06:52.624Z,100919.97
2019-04-26T09:09:29.314Z,100923.78
2019-04-26T09:12:08.266Z,100921.89
2019-04-26T09:14:44.336Z,100922.25
2019-04-26T09:17:16.311Z,100922.45
2019-04-26T09:19:48.806Z,100922.00
2019-04-26T09:22:37.553Z,100918.44
2019-04-26T09:25:11.649Z,100916.62
2019-04-26T09:27:54.367Z,100913.77
2019-04-26T09:30:34.383Z,100914.64
2019-04-26T09:33:11.790Z,100918.02
2019-04-26T09:35:43.824Z,100920.02
2019-04-26T09:38:16.341Z,100913.30
2019-04-26T09:40:48.303Z,100905.34
2019-04-26T09:43:30.887Z,100909.97
2019-04-26T09:46:20.807Z,100913.00
2019-04-26T09:48:54.416Z,100912.58
2019-04-26T09:51:27.425Z,100918.44
2019-04-26T09:53:59.511Z,100915.01
2019-04-26T09:56:32.714Z,100910.62
2019-04-26T09:59:05.622Z,100901.73
2019-04-26T10:01:38.012Z,100902.70
2019-04-26T10:04:09.997Z,100897.44
2019-04-26T10:06:42.306Z,100901.19
2019-04-26T10:09:21.049Z,100901.50
2019-04-26T10:11:55.729Z,100895.95
2019-04-26T10:14:38.150Z,100888.61
2019-04-26T10:17:15.630Z,100891.87
2019-04-26T10:19:50.054Z,100889.47
2019-04-26T10:22:24.530Z,100893.59
2019-04-26T10:24:56.689Z,100890.30
2019-04-26T10:27:28.670Z,100885.06
2019-04-26T10:30:07.719Z,100892.80
2019-04-26T10:32:34.962Z,100894.42
2019-04-26T10:35:08.030Z,100891.55
2019-04-26T10:37:44.001Z,100888.32
2019-04-26T10:40:14.420Z,100890.80
2019-04-26T10:42:46.390Z,100886.52
2019-04-26T10:45:18.487Z,100881.34
2019-04-26T10:47:50.778Z,100884.28
2019-04-26T10:50:23.229Z,100880.77
2019-04-26T10:53:14.915Z,100879.02
2019-04-26T10:55:54.851Z,100879.12
2019-04-26T10:58:31.976Z,100873.38
2019-04-26T11:01:06.545Z,100874.31
2019-04-26T11:03:38.583Z,100873.28
2019-04-26T11:06:10.667Z,100862.64
2019-04-26T11:08:42.915Z,100856.80
2019-04-26T11:11:14.853Z,100859.14
2019-04-26T11:13:47.077Z,100859.12
2019-04-26T11:16:19.120Z,100855.80
2019-04-26T11:18:51.080Z,100857.61
2019-04-26T11:21:23.041Z,100858.78
2019-04-26T11:23:55.358Z,100848.52
2019-04-26T11:26:27.338Z,100853.40
2019-04-26T11:28:59.588Z,100864.23
2019-04-26T11:31:31.863Z,100879.59
2019-04-26T11:34:06.632Z,100873.33
2019-04-26T11:36:41.790Z,100878.46
2019-04-26T11:39:14.741Z,100868.98
2019-04-26T11:41:47.156Z,100875.58
2019-04-26T11:44:23.425Z,100882.97
2019-04-26T11:46:55.175Z,100891.27
2019-04-26T11:49:27.117Z,100895.36
2019-04-26T11:52:02.923Z,100897.47
2019-04-26T11:54:34.920Z,100889.53
2019-04-26T11:57:08.281Z,100890.06
2019-04-26T11:59:40.539Z,100879.89
2019-04-26T12:02:16.082Z,100887.98
2019-04-26T12:04:49.727Z,100861.18
2019-04-26T12:07:30.016Z,100859.23
2019-04-26T12:10:09.943Z,100869.50
2019-04-26T12:12:43.191Z,100881.61
2019-04-26T12:15:14.283Z,100876.58
2019-04-26T12:17:58.044Z,100889.48
2019-04-26T12:20:37.343Z,100913.48
2019-04-26T12:23:13.640Z,100927.82
2019-04-26T12:25:47.927Z,100943.42
2019-04-26T12:28:17.318Z,100958.67
2019-04-26T12:30:49.703Z,100968.03
2019-04-26T12:33:21.641Z,100983.43
2019-04-26T12:35:57.186Z,100995.44
2019-04-26T12:38:28.587Z,100997.44
2019-04-26T12:41:01.911Z,100992.53
2019-04-26T12:43:34.856Z,101008.13
2019-04-26T12:46:22.600Z,101005.09
2019-04-26T12:48:55.344Z,101010.09
2019-04-26T12:51:42.849Z,101008.88
2019-04-26T12:54:16.294Z,101006.52
2019-04-26T12:56:48.266Z,101001.91
2019-04-26T12:59:22.511Z,100998.60
2019-04-26T13:02:04.871Z,100991.22
2019-04-26T13:04:35.850Z,100991.24
2019-04-26T13:07:06.917Z,100993.08
2019-04-26T13:09:38.468Z,100987.36
2019-04-26T13:12:12.136Z,100987.20
2019-04-26T13:15:00.949Z,100994.47
2019-04-26T13:17:35.792Z,101000.04
2019-04-26T13:20:08.540Z,100934.91
2019-04-26T13:22:46.128Z,100979.23
2019-04-26T13:25:20.289Z,100973.70
2019-04-26T13:27:48.141Z,100971.81
2019-04-26T13:30:40.095Z,100974.38
2019-04-26T13:33:11.345Z,100979.55
2019-04-26T13:35:46.682Z,100990.11
2019-04-26T13:38:17.182Z,100996.97
2019-04-26T13:40:49.712Z,101003.23
2019-04-26T13:43:22.700Z,101007.68
2019-04-26T13:46:02.957Z,101014.52
2019-04-26T13:49:04.042Z,101023.91
2019-04-26T13:51:38.311Z,101039.31
2019-04-26T13:54:10.287Z,101043.01
2019-04-26T13:56:42.551Z,101048.28
2019-04-26T13:59:14.884Z,101042.34
2019-04-26T14:01:47.290Z,101046.64
2019-04-26T14:04:19.585Z,101057.19
2019-04-26T14:06:52.706Z,101066.19
2019-04-26T14:09:25.126Z,101061.38
2019-04-26T14:11:58.074Z,101046.27
2019-04-26T14:14:34.235Z,101057.43
2019-04-26T14:17:04.351Z,101053.61
2019-04-26T14:19:53.750Z,101062.49
2019-04-26T14:22:27.350Z,101063.03
2019-04-26T14:25:04.156Z,101063.38
2019-04-26T14:27:38.056Z,101071.29
2019-04-26T14:30:10.795Z,101067.22
2019-04-26T14:32:43.116Z,101075.16
2019-04-26T14:35:17.134Z,101081.67
2019-04-26T14:37:49.925Z,101087.27
2019-04-26T14:40:22.165Z,101100.29
2019-04-26T14:43:05.999Z,101099.34
2019-04-26T14:45:28.169Z,101101.05
2019-04-26T14:48:04.007Z,101101.71
2019-04-26T14:50:34.032Z,101097.91
2019-04-26T14:53:06.312Z,101097.85
2019-04-26T14:55:38.254Z,101101.45
2019-04-26T14:58:10.281Z,101109.64
2019-04-26T15:00:45.697Z,101111.31
2019-04-26T15:03:37.217Z,101113.77
2019-04-26T15:06:16.793Z,101122.84
2019-04-26T15:08:50.653Z,101118.41
2019-04-26T15:11:23.043Z,101120.67
2019-04-26T15:13:55.143Z,101131.19
2019-04-26T15:16:27.363Z,101135.88
2019-04-26T15:19:00.093Z,101147.39
2019-04-26T15:21:34.364Z,101121.27
2019-04-26T15:24:06.131Z,101131.39
2019-04-26T15:26:38.100Z,101145.04
2019-04-26T15:29:12.582Z,101150.52
2019-04-26T15:31:44.139Z,101148.32
2019-04-26T15:34:19.269Z,101182.47
2019-04-26T15:36:49.773Z,101171.72
2019-04-26T15:39:26.195Z,101164.76
2019-04-26T15:42:17.703Z,101154.81
2019-04-26T15:45:03.496Z,101150.24
2019-04-26T15:47:43.455Z,101155.39
2019-04-26T15:53:06.723Z,101172.46
2019-04-26T15:55:40.265Z,101176.91
2019-04-26T15:58:12.852Z,101174.66
2019-04-26T16:00:44.869Z,101180.25
2019-04-26T16:03:17.147Z,101165.32
2019-04-26T16:05:49.429Z,101169.20
2019-04-26T16:08:22.830Z,101184.74
2019-04-26T16:11:12.928Z,101198.05
2019-04-26T16:13:51.392Z,101201.38
2019-04-26T16:16:20.690Z,101199.43
2019-04-26T16:18:55.457Z,101212.84
2019-04-26T16:21:25.898Z,101215.88
2019-04-26T16:23:58.589Z,101217.44
2019-04-26T16:26:30.567Z,101200.80
2019-04-26T16:29:04.540Z,101200.69
2019-04-26T16:31:56.491Z,101204.91
2019-04-26T16:34:41.478Z,101203.64
2019-04-26T16:37:14.957Z,101199.52
2019-04-26T16:39:48.718Z,101205.86
2019-04-26T16:42:20.925Z,101219.52
2019-04-26T16:44:55.136Z,101217.69
2019-04-26T16:47:26.542Z,101209.58
2019-04-26T16:50:01.256Z,101201.62
2019-04-26T16:52:33.683Z,101202.45
2019-04-26T16:55:17.794Z,101193.64
2019-04-26T16:57:53.289Z,101196.21
2019-04-26T17:00:16.670Z,101183.54
2019-04-26T17:02:49.529Z,101191.02
2019-04-26T17:05:44.435Z,101187.79
2019-04-26T17:07:58.942Z,101189.72
2019-04-26T17:10:28.787Z,101194.82
2019-04-26T17:13:03.041Z,101185.00
2019-04-26T17:15:34.740Z,101178.63
2019-04-26T17:18:06.683Z,101179.81
2019-04-26T17:20:40.435Z,101163.31
2019-04-26T17:23:14.024Z,101159.53
2019-04-26T17:25:50.286Z,101168.56
2019-04-26T17:28:26.229Z,101164.15
2019-04-26T17:30:56.191Z,101176.14
2019-04-26T17:33:29.159Z,101172.89
2019-04-26T17:36:01.388Z,101179.58
2019-04-26T17:38:35.215Z,101165.49
2019-04-26T17:41:10.994Z,101132.37
2019-04-26T17:43:46.778Z,101177.95
2019-04-26T17:46:17.743Z,101176.79
2019-04-26T17:48:49.342Z,101188.50
2019-04-26T17:51:23.222Z,101196.08
2019-04-26T17:54:18.876Z,101202.06
2019-04-26T17:56:31.451Z,101207.08
2019-04-26T17:59:08.993Z,101217.65
2019-04-26T18:01:45.198Z,101221.05
2019-04-26T18:04:11.394Z,101227.93
2019-04-26T18:06:45.452Z,101231.09
2019-04-26T18:09:38.203Z,101220.55
2019-04-26T18:11:51.068Z,101228.57
2019-04-26T18:14:29.944Z,101240.11
2019-04-26T18:17:01.496Z,101252.53
2019-04-26T18:19:50.104Z,101250.85
2019-04-26T18:22:28.400Z,101251.95
2019-04-26T18:25:04.267Z,101250.24
2019-04-26T18:27:38.390Z,101254.63
2019-04-26T18:30:26.804Z,101263.95
2019-04-26T18:33:17.542Z,101260.23
2019-04-26T18:35:55.694Z,101267.95
2019-04-26T18:38:24.774Z,101283.81
2019-04-26T18:41:00.924Z,101296.53
2019-04-26T18:43:30.605Z,101310.33
2019-04-26T18:46:06.566Z,101333.15
2019-04-26T18:48:40.635Z,101331.06
2019-04-26T18:51:12.295Z,101329.81
2019-04-26T18:53:46.249Z,101325.36
2019-04-26T18:56:18.220Z,101319.05
2019-04-26T18:58:51.637Z,101322.23
2019-04-26T19:01:23.830Z,101340.27
2019-04-26T19:03:55.860Z,101339.41
2019-04-26T19:06:31.806Z,101340.60
2019-04-26T19:09:05.725Z,101326.77
2019-04-26T19:11:37.160Z,101330.03
2019-04-26T19:14:15.042Z,101328.30
2019-04-26T19:16:56.862Z,101321.56
2019-04-26T19:19:39.606Z,101316.07
2019-04-26T19:22:15.880Z,101320.28
2019-04-26T19:24:45.240Z,101296.98
2019-04-26T19:27:22.405Z,101302.31
2019-04-26T19:29:51.779Z,101301.41
2019-04-26T19:32:23.944Z,101319.51
2019-04-26T19:34:56.097Z,101317.36
2019-04-26T19:37:30.360Z,101312.66
2019-04-26T19:40:04.558Z,101316.09
2019-04-26T19:42:35.333Z,101333.80
2019-04-26T19:45:16.696Z,101327.85
2019-04-26T19:47:52.035Z,101321.41
2019-04-26T19:50:48.582Z,101331.11
2019-04-26T19:53:24.701Z,101323.88
2019-04-26T19:56:17.544Z,101312.86
2019-04-26T19:58:50.698Z,101305.59
2019-04-26T20:01:24.814Z,101295.81
2019-04-26T20:03:56.846Z,101300.05
2019-04-26T20:06:28.792Z,101288.75
2019-04-26T20:09:01.953Z,101290.14
2019-04-26T20:11:34.113Z,101292.17
2019-04-26T20:14:06.074Z,101290.27
2019-04-26T20:16:40.754Z,101292.00
2019-04-26T20:19:15.335Z,101282.38
2019-04-26T20:21:49.135Z,101288.99
2019-04-26T20:24:19.570Z,101285.48
2019-04-26T20:26:52.504Z,101288.66
2019-04-26T20:29:24.461Z,101305.91
2019-04-26T20:32:09.977Z,101300.53
2019-04-26T20:34:45.254Z,101312.64
2019-04-26T20:37:22.856Z,101318.70
2019-04-26T20:39:55.857Z,101322.55
2019-04-26T20:42:25.117Z,101315.78
2019-04-26T20:44:57.397Z,101323.53
2019-04-26T20:47:29.377Z,101331.58
2019-04-26T20:50:03.059Z,101332.98
2019-04-26T20:52:35.196Z,101327.48
2019-04-26T20:55:08.230Z,101327.33
2019-04-26T20:57:42.721Z,101327.83
2019-04-26T21:00:14.481Z,101344.55
2019-04-26T21:02:46.488Z,101335.63
2019-04-26T21:05:18.440Z,101334.05
2019-04-26T21:07:51.082Z,101337.16
2019-04-26T21:10:25.642Z,101346.50
2019-04-26T21:12:57.109Z,101342.53
2019-04-26T21:15:29.061Z,101339.31
2019-04-26T21:18:04.054Z,101350.09
2019-04-26T21:20:36.495Z,101349.75
2019-04-26T21:23:08.789Z,101342.48
2019-04-26T21:25:45.333Z,101336.53
2019-04-26T21:28:18.926Z,101334.23
2019-04-26T21:30:52.826Z,101324.22
2019-04-26T21:33:35.886Z,101319.44
2019-04-26T21:36:07.534Z,101325.42
2019-04-26T21:38:50.131Z,101328.41
2019-04-26T21:41:24.024Z,101335.34
2019-04-26T21:43:56.062Z,101322.22
2019-04-26T21:46:29.102Z,101315.64
2019-04-26T21:49:01.017Z,101319.48
2019-04-26T21:51:34.017Z,101327.02
2019-04-26T21:54:06.233Z,101350.88
2019-04-26T21:56:38.170Z,101339.63
2019-04-26T21:59:10.135Z,101348.09
2019-04-26T22:01:43.517Z,101343.22
2019-04-26T22:04:15.704Z,101352.52
2019-04-26T22:06:47.957Z,101359.18
2019-04-26T22:09:36.767Z,101352.41
2019-04-26T22:12:09.100Z,101376.76
2019-04-26T22:14:43.998Z,101372.27
2019-04-26T22:17:30.125Z,101372.50
2019-04-26T22:20:16.260Z,101363.92
2019-04-26T22:22:52.917Z,101362.19
2019-04-26T22:25:26.753Z,101367.55
2019-04-26T22:28:00.566Z,101358.68
2019-04-26T22:30:33.146Z,101359.92
2019-04-26T22:33:05.689Z,101349.15
2019-04-26T22:35:38.241Z,101361.41
2019-04-26T22:38:10.438Z,101345.88
2019-04-26T22:40:43.714Z,101348.17
2019-04-26T22:43:29.926Z,101351.82
2019-04-26T22:46:04.977Z,101346.06
2019-04-26T22:48:39.077Z,101347.70
2019-04-26T22:51:11.334Z,101341.92
2019-04-26T22:53:43.415Z,101345.55
2019-04-26T22:56:15.863Z,101334.86
2019-04-26T22:58:48.135Z,101337.66
2019-04-26T23:01:20.098Z,101337.88
2019-04-26T23:03:53.250Z,101325.18
2019-04-26T23:06:25.864Z,101324.21
2019-04-26T23:08:57.831Z,101349.28
2019-04-26T23:11:30.411Z,101327.55
2019-04-26T23:14:18.847Z,101328.53
2019-04-26T23:17:04.193Z,101332.30
2019-04-26T23:19:35.797Z,101329.55
2019-04-26T23:22:09.710Z,101325.81
2019-04-26T23:24:42.776Z,101335.93
2019-04-26T23:27:20.604Z,101337.33
2019-04-26T23:29:49.842Z,101351.20
2019-04-26T23:32:23.456Z,101355.77
2019-04-26T23:34:58.310Z,101355.30
2019-04-26T23:37:29.573Z,101352.37
2019-04-26T23:40:01.538Z,101355.44
2019-04-26T23:42:33.817Z,101359.39
2019-04-26T23:45:10.687Z,101354.39
2019-04-26T23:47:41.327Z,101349.53
2019-04-26T23:50:14.156Z,101338.73
2019-04-26T23:52:49.278Z,101338.23
2019-04-26T23:55:19.876Z,101344.74
2019-04-26T23:57:53.351Z,101357.11
